Time;durP1;ratioP1;P1;durP2;ratioP2;P2;SDS_P1;SDS_P2;PMS_P1;PMS_P2;Temp;Humidity;BMP_temperature;BMP_pressure;BME280_temperature;BME280_humidity;BME280_pressure;Samples;Min_cycle;Max_cycle;Signal;HPM_P1;HPM_P2
2022/12/25 00:00:22;;;;;;;8.05;3.05;;;;;;;9.04;100.00;100827.28;5036618;28;20029;-66
2022/12/25 00:02:48;;;;;;;13.10;2.65;;;;;;;9.00;100.00;100826.38;5028267;28;20029;-65
2022/12/25 00:05:13;;;;;;;5.13;2.78;;;;;;;8.96;100.00;100814.00;5029422;28;20391;-65
2022/12/25 00:07:39;;;;;;;3.67;1.90;;;;;;;8.87;100.00;100822.19;5038414;28;20044;-67
2022/12/25 00:10:05;;;;;;;4.93;1.80;;;;;;;8.69;100.00;100830.81;5040311;28;20129;-66
2022/12/25 00:12:31;;;;;;;5.03;2.78;;;;;;;8.62;100.00;100836.75;5028403;28;20422;-65
2022/12/25 00:14:56;;;;;;;5.60;2.72;;;;;;;8.53;100.00;100828.03;5035423;28;20167;-65
2022/12/25 00:17:21;;;;;;;3.88;2.38;;;;;;;8.47;100.00;100824.00;5038387;28;20040;-65
2022/12/25 00:19:47;;;;;;;4.85;2.72;;;;;;;8.45;100.00;100828.13;5039479;28;20026;-66
2022/12/25 00:22:12;;;;;;;3.08;1.98;;;;;;;8.37;100.00;100824.47;5049186;28;20037;-65
2022/12/25 00:24:38;;;;;;;4.15;2.33;;;;;;;8.30;100.00;100829.59;5048956;28;20024;-66
2022/12/25 00:27:03;;;;;;;3.88;1.70;;;;;;;8.26;100.00;100835.97;5047125;28;20673;-66
2022/12/25 00:29:28;;;;;;;4.05;2.25;;;;;;;8.19;100.00;100844.53;5039703;28;20386;-65
2022/12/25 00:31:54;;;;;;;5.35;2.45;;;;;;;8.06;100.00;100845.63;5032873;28;20033;-65
2022/12/25 00:34:19;;;;;;;2.78;1.75;;;;;;;8.00;100.00;100863.84;5029574;28;20114;-65
2022/12/25 00:36:45;;;;;;;4.40;2.17;;;;;;;7.90;100.00;100858.88;5030336;28;20511;-65
2022/12/25 00:39:11;;;;;;;6.55;2.60;;;;;;;7.84;100.00;100854.84;5033893;28;20030;-65
2022/12/25 00:44:20;;;;;;;7.50;2.90;;;;;;;7.86;100.00;100859.88;5032323;28;20091;-66
2022/12/25 00:46:46;;;;;;;5.35;2.80;;;;;;;7.80;100.00;100863.91;5032799;28;20021;-65
2022/12/25 00:49:12;;;;;;;4.65;2.33;;;;;;;7.78;100.00;100866.88;5050874;28;20382;-66
2022/12/25 00:51:38;;;;;;;5.45;2.42;;;;;;;7.75;100.00;100864.88;5015742;28;20080;-66
2022/12/25 00:54:03;;;;;;;8.02;2.85;;;;;;;7.75;100.00;100861.41;5029453;28;20041;-66
2022/12/25 00:56:28;;;;;;;8.48;3.15;;;;;;;7.64;100.00;100860.25;5040755;28;20027;-65
2022/12/25 00:58:54;;;;;;;3.20;2.00;;;;;;;7.55;100.00;100851.53;5043501;28;20037;-66
2022/12/25 01:01:20;;;;;;;6.47;2.60;;;;;;;7.53;100.00;100845.72;5031862;28;20021;-65
2022/12/25 01:03:45;;;;;;;3.90;2.67;;;;;;;7.57;100.00;100838.59;5032814;28;20106;-66
2022/12/25 01:06:12;;;;;;;6.00;2.35;;;;;;;7.52;100.00;100846.81;5024475;28;20394;-65
2022/12/25 01:11:23;;;;;;;3.60;2.78;;;;;;;7.49;100.00;100842.13;5030475;28;20041;-66
2022/12/25 01:13:49;;;;;;;4.63;3.08;;;;;;;7.52;100.00;100844.91;5032154;28;20075;-66
2022/12/25 01:16:15;;;;;;;8.07;3.53;;;;;;;7.48;100.00;100840.53;5032205;28;20036;-66
2022/12/25 01:18:42;;;;;;;6.10;3.20;;;;;;;7.41;100.00;100853.69;5033019;28;20038;-66
2022/12/25 01:21:09;;;;;;;3.53;2.58;;;;;;;7.41;100.00;100849.13;5032676;28;20036;-65
2022/12/25 01:23:35;;;;;;;7.03;2.53;;;;;;;7.45;100.00;100847.34;5031284;28;20407;-65
2022/12/25 01:26:05;;;;;;;15.70;3.33;;;;;;;7.40;100.00;100850.22;5032996;28;20104;-66
2022/12/25 01:28:30;;;;;;;4.65;3.08;;;;;;;7.38;100.00;100852.44;5031855;28;20029;-65
2022/12/25 01:30:57;;;;;;;6.18;2.80;;;;;;;7.36;100.00;100851.19;5030265;28;20120;-65
2022/12/25 01:33:22;;;;;;;4.80;2.80;;;;;;;7.30;100.00;100859.44;5032588;28;20052;-66
2022/12/25 01:35:48;;;;;;;4.43;2.78;;;;;;;7.24;100.00;100857.28;5024202;28;20025;-66
2022/12/25 01:38:13;;;;;;;6.32;2.80;;;;;;;7.18;100.00;100856.69;5031214;28;20041;-66
2022/12/25 01:40:39;;;;;;;5.15;2.80;;;;;;;7.19;100.00;100871.66;5030108;28;20444;-66
2022/12/25 01:43:20;;;;;;;5.45;2.53;;;;;;;7.16;100.00;100872.31;5030528;28;20022;-66
2022/12/25 01:45:47;;;;;;;3.65;2.42;;;;;;;7.11;100.00;100872.50;5031439;28;20037;-65
2022/12/25 01:48:19;;;;;;;13.38;2.58;;;;;;;7.15;100.00;100886.81;5037966;28;20032;-66
2022/12/25 01:50:52;;;;;;;4.43;2.22;;;;;;;7.15;99.68;100886.81;5036598;28;20116;-65
2022/12/25 01:53:18;;;;;;;4.35;2.60;;;;;;;7.19;100.00;100892.28;5032635;28;20036;-64
2022/12/25 01:55:46;;;;;;;6.30;2.80;;;;;;;7.25;99.90;100881.06;5015337;28;20033;-67
2022/12/25 01:58:12;;;;;;;9.13;2.72;;;;;;;7.22;100.00;100880.91;5030456;28;20022;-68
2022/12/25 02:00:37;;;;;;;5.05;2.70;;;;;;;7.24;100.00;100878.69;5028480;28;20037;-68
2022/12/25 02:03:04;;;;;;;4.43;2.65;;;;;;;7.23;99.83;100887.84;5031186;28;20066;-68
2022/12/25 02:05:33;;;;;;;5.22;3.42;;;;;;;7.26;99.43;100895.22;5029921;28;20025;-67
2022/12/25 02:08:05;;;;;;;6.15;2.72;;;;;;;7.28;99.57;100896.47;5039435;28;20065;-68
2022/12/25 02:10:31;;;;;;;7.18;2.85;;;;;;;7.27;99.34;100897.59;5046215;28;20518;-67
2022/12/25 02:12:57;;;;;;;11.90;3.40;;;;;;;7.21;99.66;100908.81;5045565;28;20022;-68
2022/12/25 02:15:30;;;;;;;11.60;2.53;;;;;;;7.27;100.00;100900.28;5044251;28;20036;-68
2022/12/25 02:18:21;;;;;;;7.05;2.60;;;;;;;7.35;100.00;100906.69;5051197;28;20120;-68
2022/12/25 02:21:28;;;;;;;9.63;3.50;;;;;;;7.38;100.00;100910.59;5050801;28;20032;-67
2022/12/25 02:24:20;;;;;;;3.65;2.08;;;;;;;7.44;100.00;100918.09;5023188;28;20049;-68
2022/12/25 02:26:55;;;;;;;4.30;2.75;;;;;;;7.47;100.00;100914.00;5027490;28;20022;-68
2022/12/25 02:29:24;;;;;;;3.80;2.17;;;;;;;7.46;100.00;100907.06;5030861;28;20406;-68
2022/12/25 02:32:06;;;;;;;3.05;2.17;;;;;;;7.54;100.00;100906.22;5031338;28;20037;-68
2022/12/25 02:35:00;;;;;;;5.80;2.25;;;;;;;7.34;100.00;100910.47;5031988;28;20029;-68
2022/12/25 02:37:39;;;;;;;5.55;2.72;;;;;;;7.36;100.00;100907.44;5020586;28;20041;-68
2022/12/25 02:40:30;;;;;;;5.60;2.60;;;;;;;7.35;100.00;100906.69;5031723;28;20040;-68
2022/12/25 03:08:27;;;;;;;6.80;2.75;;;;;;;7.36;100.00;100912.81;5028549;28;20060;-68
2022/12/25 03:13:48;;;;;;;4.30;2.45;;;;;;;7.49;100.00;100920.59;5029508;28;19924;-68
2022/12/25 03:18:58;;;;;;;5.88;2.83;;;;;;;7.49;100.00;100901.06;5027464;28;20124;-68
2022/12/25 03:26:56;;;;;;;4.68;2.10;;;;;;;7.05;100.00;100897.91;5030776;28;20041;-68
2022/12/25 03:32:20;;;;;;;3.75;2.08;;;;;;;7.13;100.00;100905.09;5043340;28;20052;-68
2022/12/25 04:37:40;;;;;;;3.15;1.88;;;;;;;6.54;100.00;100865.28;5032797;28;20033;-67
2022/12/25 04:40:05;;;;;;;5.75;2.83;;;;;;;6.70;100.00;100869.75;5033717;28;20037;-68
2022/12/25 04:42:31;;;;;;;5.15;3.28;;;;;;;6.72;100.00;100867.53;5032343;28;20095;-68
2022/12/25 04:44:56;;;;;;;6.95;2.97;;;;;;;6.80;100.00;100879.31;5033855;28;20100;-68
2022/12/25 04:47:22;;;;;;;5.47;2.92;;;;;;;7.00;100.00;100878.56;5032455;28;20037;-68
2022/12/25 04:49:47;;;;;;;8.20;3.30;;;;;;;7.02;100.00;100871.00;5031534;28;20065;-67
2022/12/25 04:52:13;;;;;;;4.43;2.55;;;;;;;6.98;100.00;100854.81;5033733;28;20037;-68
2022/12/25 04:54:39;;;;;;;3.97;2.20;;;;;;;7.09;100.00;100855.19;5033321;28;20479;-68
2022/12/25 04:57:04;;;;;;;10.40;3.70;;;;;;;7.08;100.00;100859.75;5036229;28;20039;-68
2022/12/25 04:59:29;;;;;;;7.95;3.42;;;;;;;6.90;100.00;100858.31;5053622;28;20040;-68
2022/12/25 05:01:55;;;;;;;7.28;3.08;;;;;;;6.95;100.00;100860.78;5053500;28;20094;-68
2022/12/25 05:04:20;;;;;;;10.68;4.10;;;;;;;6.97;100.00;100855.91;5032354;28;20037;-68
2022/12/25 05:06:46;;;;;;;3.92;2.92;;;;;;;7.15;100.00;100851.22;5053753;28;20056;-68
2022/12/25 05:09:11;;;;;;;14.20;4.70;;;;;;;7.03;100.00;100851.13;5053353;28;20429;-68
2022/12/25 05:11:39;;;;;;;6.78;3.58;;;;;;;7.24;100.00;100847.34;5053546;28;20033;-68
2022/12/25 05:14:05;;;;;;;4.55;2.63;;;;;;;7.44;100.00;100840.41;5027733;28;20037;-68
2022/12/25 05:16:30;;;;;;;8.07;3.45;;;;;;;7.38;100.00;100841.72;5033493;28;20044;-68
2022/12/25 05:18:56;;;;;;;5.00;3.28;;;;;;;7.28;100.00;100837.56;5033424;28;20485;-68
2022/12/25 05:21:22;;;;;;;6.60;3.38;;;;;;;7.39;100.00;100837.16;5027903;28;20486;-68
2022/12/25 05:23:52;;;;;;;3.78;2.72;;;;;;;7.48;100.00;100827.13;5040369;28;20030;-68
2022/12/25 05:26:23;;;;;;;7.60;3.95;;;;;;;7.37;100.00;100828.66;5023393;28;20394;-68
2022/12/25 05:28:49;;;;;;;5.10;2.95;;;;;;;7.56;100.00;100827.06;5033097;28;20561;-68
2022/12/25 05:31:15;;;;;;;9.18;3.60;;;;;;;7.46;100.00;100824.81;5027659;28;20056;-68
2022/12/25 05:33:40;;;;;;;8.40;3.95;;;;;;;7.37;100.00;100817.94;5033024;28;20025;-68
2022/12/25 05:36:08;;;;;;;7.20;4.28;;;;;;;7.47;100.00;100817.56;5033028;28;20029;-68
2022/12/25 05:38:34;;;;;;;6.88;3.22;;;;;;;7.48;100.00;100811.84;5031341;28;20028;-68
2022/12/25 05:41:00;;;;;;;9.18;3.88;;;;;;;7.16;100.00;100820.66;5031516;28;20044;-68
2022/12/25 05:43:27;;;;;;;5.78;2.88;;;;;;;7.38;100.00;100814.16;5044776;28;20048;-67
2022/12/25 05:45:52;;;;;;;12.38;4.13;;;;;;;7.54;100.00;100801.72;5040506;28;20494;-68
2022/12/25 05:48:18;;;;;;;11.85;4.25;;;;;;;7.59;100.00;100801.53;5048274;28;20025;-67
2022/12/25 05:50:43;;;;;;;9.07;3.97;;;;;;;7.57;100.00;100798.41;5030520;28;20122;-68
2022/12/25 05:53:11;;;;;;;8.65;3.38;;;;;;;7.51;100.00;100797.78;5024758;28;20080;-68
2022/12/25 05:55:38;;;;;;;7.25;3.35;;;;;;;7.53;100.00;100808.19;5022299;28;20038;-67
2022/12/25 05:58:05;;;;;;;7.10;3.63;;;;;;;7.47;100.00;100809.50;5019727;28;20041;-67
2022/12/25 06:00:31;;;;;;;6.43;3.50;;;;;;;7.61;100.00;100810.00;5029877;28;20034;-68
2022/12/25 06:02:57;;;;;;;9.27;3.83;;;;;;;7.66;100.00;100813.28;5028811;28;20445;-68
2022/12/25 06:05:22;;;;;;;4.93;3.05;;;;;;;7.77;100.00;100810.94;5031933;28;20030;-68
2022/12/25 06:07:48;;;;;;;7.70;2.90;;;;;;;7.71;100.00;100817.63;5032585;28;20029;-69
2022/12/25 06:10:13;;;;;;;7.93;2.88;;;;;;;7.74;100.00;100816.97;5030170;28;20037;-68
2022/12/25 06:12:39;;;;;;;6.47;3.40;;;;;;;7.76;100.00;100820.88;5029779;28;20036;-68
2022/12/25 06:15:05;;;;;;;9.02;3.25;;;;;;;7.57;100.00;100819.81;5025624;28;20028;-68
2022/12/25 06:17:30;;;;;;;6.45;3.20;;;;;;;7.51;100.00;100818.47;5030408;28;20048;-68
2022/12/25 06:19:56;;;;;;;5.75;2.92;;;;;;;7.67;100.00;100822.06;5047286;28;20045;-68
2022/12/25 06:22:21;;;;;;;6.80;2.92;;;;;;;7.64;100.00;100823.53;5005141;28;20059;-68
2022/12/25 06:24:47;;;;;;;8.55;3.03;;;;;;;7.64;100.00;100839.63;5027571;28;20105;-68
2022/12/25 06:27:12;;;;;;;6.93;4.18;;;;;;;7.58;100.00;100816.81;5031712;28;20445;-67
2022/12/25 06:29:38;;;;;;;8.52;3.50;;;;;;;7.81;100.00;100823.34;5031800;28;20383;-68
2022/12/25 06:32:03;;;;;;;6.28;2.55;;;;;;;7.89;100.00;100819.00;5030154;28;20037;-67
2022/12/25 06:34:29;;;;;;;5.95;2.78;;;;;;;7.70;100.00;100827.56;5029077;28;20049;-67
2022/12/25 06:36:54;;;;;;;7.68;3.67;;;;;;;7.69;100.00;100822.53;5031693;28;20025;-67
2022/12/25 06:39:20;;;;;;;7.20;3.05;;;;;;;7.73;100.00;100821.53;5029821;28;20413;-67
2022/12/25 06:41:46;;;;;;;12.43;3.22;;;;;;;7.79;100.00;100816.75;5030518;28;20043;-67
2022/12/25 06:44:13;;;;;;;7.25;3.65;;;;;;;7.85;100.00;100820.78;5026195;28;20112;-67
2022/12/25 06:46:38;;;;;;;9.70;3.65;;;;;;;7.91;100.00;100816.78;5030534;28;20095;-67
2022/12/25 06:49:04;;;;;;;9.43;4.38;;;;;;;7.67;100.00;100822.84;5025800;28;20041;-68
2022/12/25 06:51:31;;;;;;;3.78;2.42;;;;;;;7.78;100.00;100824.00;5040609;28;20123;-67
2022/12/25 06:54:01;;;;;;;8.38;4.47;;;;;;;7.76;100.00;100818.19;5049442;28;20036;-67
2022/12/25 06:56:27;;;;;;;13.48;3.15;;;;;;;7.74;100.00;100820.41;5051033;28;20497;-67
2022/12/25 06:59:01;;;;;;;5.72;2.88;;;;;;;7.71;100.00;100817.63;5034942;28;20029;-67
2022/12/25 07:01:34;;;;;;;5.15;2.45;;;;;;;7.73;100.00;100816.19;5049478;28;20117;-67
2022/12/25 07:04:02;;;;;;;4.82;3.03;;;;;;;7.78;100.00;100820.56;5032754;28;20057;-67
2022/12/25 07:06:28;;;;;;;7.03;2.67;;;;;;;7.91;100.00;100825.63;5050558;28;20078;-67
2022/12/25 07:08:53;;;;;;;7.47;3.38;;;;;;;7.91;100.00;100836.34;5045150;28;20076;-67
2022/12/25 07:11:20;;;;;;;11.63;4.43;;;;;;;7.86;100.00;100838.41;5050448;28;20045;-67
2022/12/25 07:13:46;;;;;;;5.38;3.35;;;;;;;7.90;100.00;100842.00;5038581;28;20028;-68
2022/12/25 07:16:12;;;;;;;7.28;3.97;;;;;;;8.04;100.00;100839.81;5029964;28;20041;-67
2022/12/25 07:18:38;;;;;;;8.15;3.42;;;;;;;8.10;100.00;100838.50;5029812;28;20037;-67
2022/12/25 07:21:15;;;;;;;7.40;4.03;;;;;;;8.18;100.00;100840.28;5012550;28;20071;-68
2022/12/25 07:23:41;;;;;;;7.47;2.90;;;;;;;8.15;100.00;100840.94;5025809;28;20029;-67
2022/12/25 07:26:09;;;;;;;9.80;2.90;;;;;;;8.13;100.00;100840.50;5013154;28;20505;-67
2022/12/25 07:28:34;;;;;;;3.35;2.30;;;;;;;8.06;100.00;100840.25;5030915;28;20025;-67
2022/12/25 07:31:11;;;;;;;11.45;2.97;;;;;;;8.08;100.00;100835.34;5029686;28;20486;-67
2022/12/25 07:33:36;;;;;;;5.85;2.92;;;;;;;7.98;100.00;100827.72;5030334;28;20041;-67
2022/12/25 07:36:04;;;;;;;5.43;3.55;;;;;;;8.06;100.00;100835.69;5030527;28;20029;-68
2022/12/25 07:38:30;;;;;;;11.60;2.72;;;;;;;8.16;100.00;100842.53;5030793;28;20038;-67
2022/12/25 07:40:55;;;;;;;8.80;2.90;;;;;;;8.10;100.00;100836.59;5023064;28;20399;-67
2022/12/25 07:43:21;;;;;;;7.35;2.65;;;;;;;8.03;100.00;100835.59;5030358;28;20100;-67
2022/12/25 07:45:46;;;;;;;12.05;2.90;;;;;;;8.13;100.00;100843.16;5030352;28;20029;-67
2022/12/25 07:48:12;;;;;;;15.23;4.70;;;;;;;7.98;100.00;100849.19;5030170;28;20037;-67
2022/12/25 07:50:37;;;;;;;9.73;4.00;;;;;;;8.00;100.00;100842.38;5029095;28;20040;-67
2022/12/25 07:53:03;;;;;;;7.93;3.33;;;;;;;7.98;100.00;100841.94;5013555;28;20033;-67
2022/12/25 07:55:28;;;;;;;6.63;3.40;;;;;;;7.92;100.00;100837.88;5029620;28;20030;-66
2022/12/25 07:57:54;;;;;;;4.32;2.30;;;;;;;8.00;100.00;100842.38;5030908;28;20820;-66
2022/12/25 08:00:20;;;;;;;5.38;3.40;;;;;;;8.15;100.00;100835.56;5029523;28;20033;-65
2022/12/25 08:02:48;;;;;;;2.20;1.90;;;;;;;8.07;100.00;100837.25;5029656;28;20445;-65
2022/12/25 08:05:13;;;;;;;5.78;2.92;;;;;;;8.07;100.00;100837.25;5029287;28;20041;-65
2022/12/25 08:07:39;;;;;;;14.02;3.58;;;;;;;8.20;100.00;100825.44;5030719;28;20052;-66
2022/12/25 08:10:05;;;;;;;6.80;2.38;;;;;;;8.30;100.00;100826.94;5022849;28;20034;-65
2022/12/25 08:12:30;;;;;;;6.22;2.70;;;;;;;8.46;100.00;100838.53;5025965;28;20120;-66
2022/12/25 08:14:56;;;;;;;6.72;3.63;;;;;;;8.46;100.00;100833.16;5021070;28;20108;-65
2022/12/25 08:17:21;;;;;;;5.32;2.95;;;;;;;8.40;100.00;100823.78;5029587;28;20087;-68
2022/12/25 08:19:47;;;;;;;12.35;3.58;;;;;;;8.39;100.00;100816.84;5027911;28;20490;-65
2022/12/25 08:22:12;;;;;;;5.10;2.55;;;;;;;8.34;100.00;100818.97;5029697;28;20041;-65
2022/12/25 08:24:37;;;;;;;4.57;2.45;;;;;;;8.49;100.00;100807.56;5030115;28;20017;-67
2022/12/25 08:27:03;;;;;;;4.20;2.83;;;;;;;8.56;100.00;100803.19;5029406;28;20033;-65
2022/12/25 08:29:28;;;;;;;13.68;3.92;;;;;;;8.55;100.00;100804.34;5030659;28;20527;-66
2022/12/25 08:31:54;;;;;;;6.88;2.90;;;;;;;8.53;100.00;100806.56;5042648;28;20534;-68
2022/12/25 08:34:20;;;;;;;6.80;2.72;;;;;;;8.47;100.00;100815.97;5028490;28;20128;-65
2022/12/25 08:36:45;;;;;;;5.40;2.92;;;;;;;8.52;100.00;100814.94;5027705;28;20033;-65
2022/12/25 08:39:10;;;;;;;6.07;2.90;;;;;;;8.39;100.00;100822.22;5030579;28;20021;-65
2022/12/25 08:41:36;;;;;;;7.10;2.50;;;;;;;8.30;100.00;100807.34;5028139;28;20029;-65
2022/12/25 08:44:03;;;;;;;4.13;2.05;;;;;;;8.49;100.00;100821.00;5030304;28;20086;-65
2022/12/25 08:46:28;;;;;;;5.25;2.80;;;;;;;8.37;100.00;100819.09;5029837;28;20505;-67
2022/12/25 08:48:55;;;;;;;8.40;2.90;;;;;;;8.42;100.00;100810.81;5029619;28;20076;-65
2022/12/25 08:51:22;;;;;;;6.10;3.60;;;;;;;8.51;100.00;100808.81;5029439;28;20099;-67
2022/12/25 08:53:49;;;;;;;4.25;2.20;;;;;;;8.61;100.00;100811.03;5029821;28;20100;-66
2022/12/25 08:56:16;;;;;;;9.05;3.20;;;;;;;8.55;100.00;100798.97;5028559;28;20124;-67
2022/12/25 08:58:41;;;;;;;5.45;3.17;;;;;;;8.63;100.00;100816.81;5030876;28;20103;-67
2022/12/25 09:01:07;;;;;;;5.78;2.33;;;;;;;8.52;100.00;100818.41;5029264;28;20030;-68
2022/12/25 09:03:33;;;;;;;8.48;2.80;;;;;;;8.62;100.00;100815.28;5030741;28;20390;-66
2022/12/25 09:06:05;;;;;;;5.80;2.90;;;;;;;8.51;100.00;100816.84;5015672;28;20465;-65
2022/12/25 09:08:31;;;;;;;3.63;2.25;;;;;;;8.40;100.00;100818.41;5032381;28;20120;-66
2022/12/25 09:11:04;;;;;;;8.32;3.03;;;;;;;8.48;100.00;100820.19;5032994;28;20091;-65
2022/12/25 09:13:29;;;;;;;4.55;2.25;;;;;;;8.37;100.00;100824.47;5031049;28;20224;-72
2022/12/25 09:15:55;;;;;;;3.28;1.80;;;;;;;8.45;100.00;100825.47;5033369;28;20084;-66
2022/12/25 09:18:20;;;;;;;5.28;2.20;;;;;;;8.48;100.00;100828.25;5032086;28;20037;-65
2022/12/25 09:20:46;;;;;;;7.45;2.72;;;;;;;8.64;100.00;100831.81;5032558;28;20513;-65
2022/12/25 09:23:11;;;;;;;4.82;2.03;;;;;;;8.72;100.00;100822.88;5030237;28;20037;-65
2022/12/25 09:25:36;;;;;;;8.60;3.15;;;;;;;8.68;100.00;100827.34;5031755;28;20022;-65
2022/12/25 09:28:02;;;;;;;4.63;2.03;;;;;;;8.67;100.00;100830.38;5015815;28;20042;-67
2022/12/25 09:30:27;;;;;;;6.85;3.08;;;;;;;8.49;100.00;100821.00;5032383;28;20120;-65
2022/12/25 09:32:53;;;;;;;4.07;2.47;;;;;;;8.52;100.00;100825.66;5032266;28;20091;-65
2022/12/25 09:35:18;;;;;;;5.65;2.40;;;;;;;8.66;100.00;100826.13;5032117;28;20124;-66
2022/12/25 09:37:44;;;;;;;4.65;2.20;;;;;;;8.76;100.00;100833.72;5041778;28;20029;-65
2022/12/25 09:40:16;;;;;;;10.27;2.50;;;;;;;8.70;100.00;100827.81;5032901;28;20036;-65
2022/12/25 09:42:43;;;;;;;4.43;2.38;;;;;;;8.78;100.00;100826.91;5028877;28;20044;-66
2022/12/25 09:45:19;;;;;;;4.88;2.30;;;;;;;8.85;100.00;100820.94;5030029;28;20091;-65
2022/12/25 09:47:47;;;;;;;3.80;2.03;;;;;;;8.65;100.00;100822.66;5016785;28;20029;-70
2022/12/25 09:50:20;;;;;;;8.77;2.45;;;;;;;8.68;100.00;100818.50;5032575;28;20041;-65
2022/12/25 09:52:57;;;;;;;5.22;2.45;;;;;;;8.71;100.00;100818.63;5030582;28;20034;-66
2022/12/25 09:55:25;;;;;;;6.55;2.15;;;;;;;8.66;100.00;100824.22;5027168;28;20026;-65
2022/12/25 09:57:54;;;;;;;3.70;2.08;;;;;;;8.84;100.00;100820.19;5045215;28;20584;-65
2022/12/25 10:00:22;;;;;;;7.85;2.97;;;;;;;8.82;100.00;100827.78;5039365;28;20043;-65
2022/12/25 10:03:04;;;;;;;4.55;2.33;;;;;;;8.78;100.00;100828.78;5030225;28;20041;-65
2022/12/25 10:05:35;;;;;;;5.78;2.28;;;;;;;8.64;100.00;100828.34;5032649;28;20052;-66
2022/12/25 10:08:13;;;;;;;4.22;2.58;;;;;;;8.72;100.00;100835.50;5031614;28;20498;-65
2022/12/25 10:11:20;;;;;;;6.22;2.40;;;;;;;8.78;100.00;100826.91;5031589;28;20047;-64
2022/12/25 10:13:54;;;;;;;4.90;2.78;;;;;;;9.02;100.00;100831.41;5021847;28;20507;-65
2022/12/25 10:16:40;;;;;;;8.68;2.70;;;;;;;8.78;100.00;100821.53;5032002;28;20159;-65
2022/12/25 10:19:26;;;;;;;5.72;2.65;;;;;;;8.66;100.00;100818.84;5032390;28;20112;-66
2022/12/25 10:21:57;;;;;;;6.57;3.08;;;;;;;8.82;100.00;100811.69;5028223;28;20057;-65
2022/12/25 10:24:36;;;;;;;8.05;3.55;;;;;;;8.88;100.00;100814.91;5029457;28;20043;-67
2022/12/25 10:27:12;;;;;;;5.75;2.42;;;;;;;8.82;100.00;100814.38;5026665;28;20570;-67
2022/12/25 10:29:38;;;;;;;7.25;2.20;;;;;;;8.87;100.00;100803.38;5032046;28;20051;-65
2022/12/25 10:32:04;;;;;;;4.50;2.53;;;;;;;9.05;100.00;100790.47;5031173;28;20026;-66
2022/12/25 10:34:29;;;;;;;7.13;2.33;;;;;;;9.02;100.00;100780.38;5031472;28;20090;-65
2022/12/25 10:36:55;;;;;;;9.15;3.33;;;;;;;8.93;100.00;100783.22;5032182;28;20494;-67
2022/12/25 10:39:24;;;;;;;8.60;3.03;;;;;;;9.10;100.00;100772.19;5029956;28;20039;-65
2022/12/25 10:42:03;;;;;;;11.85;3.00;;;;;;;8.81;100.00;100774.41;5046567;28;20347;-65
2022/12/25 10:44:29;;;;;;;11.20;3.00;;;;;;;8.74;100.00;100764.25;5028727;28;20034;-65
2022/12/25 10:46:56;;;;;;;4.45;2.30;;;;;;;8.88;100.00;100755.84;5040072;28;20029;-64
2022/12/25 10:49:27;;;;;;;9.13;2.88;;;;;;;8.82;100.00;100762.56;5031320;28;20039;-65
2022/12/25 10:51:52;;;;;;;3.63;1.98;;;;;;;9.02;100.00;100753.53;5022904;28;20148;-65
2022/12/25 10:54:25;;;;;;;4.07;2.25;;;;;;;9.07;100.00;100755.97;5040670;28;20149;-65
2022/12/25 10:57:02;;;;;;;5.88;2.15;;;;;;;9.14;100.00;100756.16;5030517;28;20064;-66
2022/12/25 10:59:33;;;;;;;9.52;2.85;;;;;;;9.12;100.00;100752.28;5031289;28;20407;-67
2022/12/25 11:02:27;;;;;;;5.25;2.65;;;;;;;9.28;100.00;100739.66;5027473;28;20034;-67
2022/12/25 11:05:27;;;;;;;6.60;2.22;;;;;;;9.35;100.00;100737.94;5028030;28;20056;-67
2022/12/25 11:07:54;;;;;;;6.57;2.75;;;;;;;9.36;100.00;100730.66;5012556;28;20041;-66
2022/12/25 11:10:30;;;;;;;5.32;2.45;;;;;;;9.54;100.00;100723.84;5029033;28;20025;-67
2022/12/25 11:12:57;;;;;;;5.03;2.67;;;;;;;9.49;100.00;100724.09;5029060;28;20123;-67
2022/12/25 11:16:00;;;;;;;4.15;2.65;;;;;;;9.40;100.00;100710.81;5029789;28;20038;-67
2022/12/25 11:18:31;;;;;;;3.67;1.83;;;;;;;9.41;100.00;100706.22;5019054;28;20033;-67
2022/12/25 11:20:59;;;;;;;6.80;2.28;;;;;;;9.43;100.00;100696.69;5029586;28;20045;-66
2022/12/25 11:23:27;;;;;;;4.72;2.08;;;;;;;9.56;100.00;100700.09;5029216;28;20441;-66
2022/12/25 11:26:07;;;;;;;6.55;2.78;;;;;;;9.57;100.00;100704.31;5030998;28;20080;-66
2022/12/25 11:28:35;;;;;;;4.55;2.63;;;;;;;9.61;100.00;100699.81;5030188;28;20120;-66
2022/12/25 11:31:14;;;;;;;6.32;2.55;;;;;;;9.61;100.00;100706.00;5025697;28;20030;-67
2022/12/25 11:33:45;;;;;;;11.43;3.90;;;;;;;9.41;100.00;100706.22;5029979;28;20045;-67
2022/12/25 11:36:23;;;;;;;7.20;3.05;;;;;;;9.48;100.00;100701.03;5020729;28;20414;-66
2022/12/25 11:38:49;;;;;;;5.38;2.50;;;;;;;9.45;100.00;100697.13;5029011;28;20513;-67
2022/12/25 11:41:19;;;;;;;3.28;2.33;;;;;;;9.54;100.00;100699.66;5026341;28;20026;-66
2022/12/25 11:43:58;;;;;;;6.57;4.25;;;;;;;9.54;100.00;100699.66;5030502;28;20036;-67
2022/12/25 11:46:29;;;;;;;4.40;2.33;;;;;;;9.46;100.00;100701.38;5029660;28;20037;-66
2022/12/25 11:49:00;;;;;;;7.03;2.90;;;;;;;9.43;100.00;100699.38;5046479;28;20052;-67
2022/12/25 11:51:31;;;;;;;3.33;2.47;;;;;;;9.49;100.00;100703.38;5026308;28;20040;-67
2022/12/25 11:54:02;;;;;;;5.10;2.80;;;;;;;9.52;100.00;100691.94;5030295;28;20045;-67
2022/12/25 11:56:29;;;;;;;11.20;2.85;;;;;;;9.72;100.00;100687.41;5029003;28;20748;-67
2022/12/25 11:59:07;;;;;;;6.10;3.28;;;;;;;9.75;100.00;100686.72;5029902;28;20116;-66
2022/12/25 12:01:37;;;;;;;4.10;2.45;;;;;;;9.60;100.00;100685.59;5029886;28;20041;-66
2022/12/25 12:04:13;;;;;;;4.72;2.13;;;;;;;9.48;100.00;100687.59;5023717;28;20437;-67
2022/12/25 12:07:01;;;;;;;5.10;3.03;;;;;;;9.14;100.00;100685.56;5028219;28;20065;-66
2022/12/25 12:10:06;;;;;;;7.07;2.53;;;;;;;9.40;100.00;100693.91;5017883;28;20038;-66
2022/12/25 12:12:45;;;;;;;6.40;2.92;;;;;;;9.58;100.00;100708.59;5021359;28;20041;-67
2022/12/25 12:15:43;;;;;;;6.60;2.80;;;;;;;9.46;100.00;100712.13;5027602;28;20069;-67
2022/12/25 12:18:20;;;;;;;8.10;3.15;;;;;;;9.41;100.00;100712.38;5029354;28;20045;-66
2022/12/25 12:20:57;;;;;;;8.80;3.20;;;;;;;9.32;100.00;100709.06;5028204;28;20029;-67
2022/12/25 12:23:23;;;;;;;8.85;2.80;;;;;;;9.42;100.00;100702.41;5028508;28;20407;-66
2022/12/25 12:25:49;;;;;;;11.93;4.47;;;;;;;9.53;100.00;100708.81;5030338;28;20022;-67
2022/12/25 12:28:32;;;;;;;5.25;2.53;;;;;;;9.45;100.00;100710.56;5026187;28;20065;-67
2022/12/25 12:31:04;;;;;;;8.15;2.80;;;;;;;9.46;100.00;100687.94;5028324;28;20096;-67
2022/12/25 12:33:35;;;;;;;6.13;2.75;;;;;;;9.59;100.00;100680.56;5031243;28;20148;-67
2022/12/25 12:36:02;;;;;;;;;;;;;;;9.48;100.00;100666.88;5033516;28;20123;-67
2022/12/25 12:38:30;;;;;;;4.25;2.60;;;;;;;9.65;100.00;100671.13;5027023;28;20341;-67
2022/12/25 12:41:01;;;;;;;4.70;2.85;;;;;;;9.53;100.00;100668.50;5032178;28;20048;-66
2022/12/25 12:43:57;;;;;;;8.70;3.08;;;;;;;9.59;100.00;100664.44;5025288;28;20442;-66
2022/12/25 12:46:29;;;;;;;5.25;2.70;;;;;;;9.58;100.00;100658.28;5032689;28;20033;-66
2022/12/25 12:49:07;;;;;;;;;;;;;;;9.57;100.00;100661.31;5033530;28;20045;-67
2022/12/25 12:51:35;;;;;;;4.32;2.90;;;;;;;9.53;100.00;100660.44;5032742;28;19913;-67
2022/12/25 12:54:17;;;;;;;5.45;2.72;;;;;;;9.64;100.00;100656.13;5032295;28;20494;-66
2022/12/25 12:56:53;;;;;;;;;;;;;;;9.56;100.00;100651.69;5034238;28;20045;-66
2022/12/25 12:59:18;;;;;;;5.93;2.50;;;;;;;9.75;100.00;100644.50;5047894;28;19913;-67
2022/12/25 13:01:53;;;;;;;5.43;2.85;;;;;;;9.81;100.00;100631.56;5033024;28;20029;-67
2022/12/25 13:04:30;;;;;;;3.65;2.70;;;;;;;9.63;100.00;100619.59;5031540;28;20453;-67
2022/12/25 13:07:34;;;;;;;5.03;2.45;;;;;;;9.94;100.00;100616.84;5032686;28;20152;-66
2022/12/25 13:10:39;;;;;;;4.65;2.58;;;;;;;9.90;100.00;100606.03;4978920;28;20042;-66
2022/12/25 13:13:41;;;;;;;5.25;2.67;;;;;;;9.93;100.00;100601.84;5029332;28;20490;-67
2022/12/25 13:16:26;;;;;;;7.45;3.20;;;;;;;10.05;100.00;100596.34;5027085;28;20045;-67
2022/12/25 13:18:54;;;;;;;5.15;3.05;;;;;;;9.99;100.00;100598.53;5023340;28;20045;-67
2022/12/25 13:21:24;;;;;;;4.78;2.35;;;;;;;10.00;100.00;100597.41;5032293;28;20037;-66
2022/12/25 13:23:56;;;;;;;5.93;2.95;;;;;;;9.78;100.00;100606.13;5030861;28;20045;-67